sensor_id;sensor_type;location;lat;lon;timestamp;temperature;humidity
12060;DHT22;6091;51.432;6.880;2023-05-02T00:02:18;24.30;35.40
12060;DHT22;6091;51.432;6.880;2023-05-02T00:04:45;24.20;35.40
12060;DHT22;6091;51.432;6.880;2023-05-02T00:07:12;24.20;35.40
12060;DHT22;6091;51.432;6.880;2023-05-02T00:09:39;24.20;35.40
12060;DHT22;6091;51.432;6.880;2023-05-02T00:12:07;24.20;35.50
12060;DHT22;6091;51.432;6.880;2023-05-02T00:14:33;24.20;35.40
12060;DHT22;6091;51.432;6.880;2023-05-02T00:17:00;24.30;35.00
12060;DHT22;6091;51.432;6.880;2023-05-02T00:19:28;24.20;35.00
12060;DHT22;6091;51.432;6.880;2023-05-02T00:21:54;24.10;34.90
12060;DHT22;6091;51.432;6.880;2023-05-02T00:24:22;24.20;35.50
12060;DHT22;6091;51.432;6.880;2023-05-02T00:26:49;24.20;35.60
12060;DHT22;6091;51.432;6.880;2023-05-02T00:29:15;24.20;35.60
12060;DHT22;6091;51.432;6.880;2023-05-02T00:31:43;24.20;35.10
12060;DHT22;6091;51.432;6.880;2023-05-02T00:34:10;24.10;35.10
12060;DHT22;6091;51.432;6.880;2023-05-02T00:36:37;24.10;35.60
12060;DHT22;6091;51.432;6.880;2023-05-02T00:39:04;24.10;35.60
12060;DHT22;6091;51.432;6.880;2023-05-02T00:41:31;24.20;35.20
12060;DHT22;6091;51.432;6.880;2023-05-02T00:43:58;24.20;35.70
12060;DHT22;6091;51.432;6.880;2023-05-02T00:46:25;24.10;35.60
12060;DHT22;6091;51.432;6.880;2023-05-02T00:48:52;24.10;35.60
12060;DHT22;6091;51.432;6.880;2023-05-02T00:51:20;24.10;35.20
12060;DHT22;6091;51.432;6.880;2023-05-02T00:53:47;24.10;35.60
12060;DHT22;6091;51.432;6.880;2023-05-02T00:56:14;24.10;35.70
12060;DHT22;6091;51.432;6.880;2023-05-02T00:58:43;24.10;35.70
12060;DHT22;6091;51.432;6.880;2023-05-02T01:04:30;24.10;35.80
12060;DHT22;6091;51.432;6.880;2023-05-02T01:10:29;24.10;35.90
12060;DHT22;6091;51.432;6.880;2023-05-02T01:13:23;24.10;35.10
12060;DHT22;6091;51.432;6.880;2023-05-02T01:15:57;24.10;35.70
12060;DHT22;6091;51.432;6.880;2023-05-02T01:18:30;24.10;35.80
12060;DHT22;6091;51.432;6.880;2023-05-02T01:21:06;24.10;35.80
12060;DHT22;6091;51.432;6.880;2023-05-02T01:26:50;24.10;35.90
12060;DHT22;6091;51.432;6.880;2023-05-02T01:29:26;24.10;35.90
12060;DHT22;6091;51.432;6.880;2023-05-02T01:31:57;24.00;35.80
12060;DHT22;6091;51.432;6.880;2023-05-02T01:34:27;24.10;35.30
12060;DHT22;6091;51.432;6.880;2023-05-02T01:36:56;24.00;35.80
12060;DHT22;6091;51.432;6.880;2023-05-02T01:39:25;24.00;35.80
12060;DHT22;6091;51.432;6.880;2023-05-02T01:41:55;24.00;35.80
12060;DHT22;6091;51.432;6.880;2023-05-02T01:44:26;23.90;35.30
12060;DHT22;6091;51.432;6.880;2023-05-02T01:46:56;24.00;35.90
12060;DHT22;6091;51.432;6.880;2023-05-02T01:49:26;24.00;35.30
12060;DHT22;6091;51.432;6.880;2023-05-02T01:51:55;24.00;35.90
12060;DHT22;6091;51.432;6.880;2023-05-02T01:54:26;24.00;35.90
12060;DHT22;6091;51.432;6.880;2023-05-02T01:56:54;23.90;35.30
12060;DHT22;6091;51.432;6.880;2023-05-02T01:59:23;24.00;35.90
12060;DHT22;6091;51.432;6.880;2023-05-02T02:01:51;23.90;35.30
12060;DHT22;6091;51.432;6.880;2023-05-02T02:04:20;24.00;35.40
12060;DHT22;6091;51.432;6.880;2023-05-02T02:07:00;24.00;36.00
12060;DHT22;6091;51.432;6.880;2023-05-02T02:09:30;24.00;35.60
12060;DHT22;6091;51.432;6.880;2023-05-02T02:12:15;24.00;36.00
12060;DHT22;6091;51.432;6.880;2023-05-02T02:14:52;24.00;36.10
12060;DHT22;6091;51.432;6.880;2023-05-02T02:17:26;24.10;36.10
12060;DHT22;6091;51.432;6.880;2023-05-02T02:20:00;24.00;36.00
12060;DHT22;6091;51.432;6.880;2023-05-02T02:22:33;24.00;36.10
12060;DHT22;6091;51.432;6.880;2023-05-02T02:25:05;24.00;35.50
12060;DHT22;6091;51.432;6.880;2023-05-02T02:27:36;24.00;36.00
12060;DHT22;6091;51.432;6.880;2023-05-02T02:30:04;23.90;35.50
12060;DHT22;6091;51.432;6.880;2023-05-02T02:32:32;24.00;36.10
12060;DHT22;6091;51.432;6.880;2023-05-02T02:34:59;23.90;35.50
12060;DHT22;6091;51.432;6.880;2023-05-02T02:37:40;24.00;36.10
12060;DHT22;6091;51.432;6.880;2023-05-02T02:49:09;24.00;36.20
12060;DHT22;6091;51.432;6.880;2023-05-02T02:58:59;24.00;36.10
12060;DHT22;6091;51.432;6.880;2023-05-02T03:01:21;24.00;36.20
12060;DHT22;6091;51.432;6.880;2023-05-02T03:03:52;24.00;35.50
12060;DHT22;6091;51.432;6.880;2023-05-02T03:06:20;23.90;36.10
12060;DHT22;6091;51.432;6.880;2023-05-02T03:08:47;23.90;35.60
12060;DHT22;6091;51.432;6.880;2023-05-02T03:11:14;23.80;35.50
12060;DHT22;6091;51.432;6.880;2023-05-02T03:13:42;23.90;36.20
12060;DHT22;6091;51.432;6.880;2023-05-02T03:19:03;23.90;36.30
12060;DHT22;6091;51.432;6.880;2023-05-02T03:21:30;23.90;36.20
12060;DHT22;6091;51.432;6.880;2023-05-02T03:24:02;23.80;35.60
12060;DHT22;6091;51.432;6.880;2023-05-02T03:26:30;23.90;36.20
12060;DHT22;6091;51.432;6.880;2023-05-02T03:28:57;23.90;36.20
12060;DHT22;6091;51.432;6.880;2023-05-02T03:31:24;23.90;36.20
12060;DHT22;6091;51.432;6.880;2023-05-02T03:33:52;24.00;36.30
12060;DHT22;6091;51.432;6.880;2023-05-02T03:36:20;23.90;36.20
12060;DHT22;6091;51.432;6.880;2023-05-02T03:38:47;23.80;35.60
12060;DHT22;6091;51.432;6.880;2023-05-02T03:41:14;23.90;36.20
12060;DHT22;6091;51.432;6.880;2023-05-02T03:43:41;23.80;35.70
12060;DHT22;6091;51.432;6.880;2023-05-02T03:46:09;23.90;36.30
12060;DHT22;6091;51.432;6.880;2023-05-02T03:48:37;23.80;36.20
12060;DHT22;6091;51.432;6.880;2023-05-02T03:51:05;23.90;36.30
12060;DHT22;6091;51.432;6.880;2023-05-02T03:53:33;23.90;36.30
12060;DHT22;6091;51.432;6.880;2023-05-02T03:56:01;23.90;35.80
12060;DHT22;6091;51.432;6.880;2023-05-02T03:58:28;23.80;35.70
12060;DHT22;6091;51.432;6.880;2023-05-02T04:00:55;23.80;35.70
12060;DHT22;6091;51.432;6.880;2023-05-02T04:03:22;23.80;35.70
12060;DHT22;6091;51.432;6.880;2023-05-02T04:05:49;23.90;35.80
12060;DHT22;6091;51.432;6.880;2023-05-02T04:08:17;23.90;36.30
12060;DHT22;6091;51.432;6.880;2023-05-02T04:10:45;23.90;35.80
12060;DHT22;6091;51.432;6.880;2023-05-02T04:13:12;23.90;35.80
12060;DHT22;6091;51.432;6.880;2023-05-02T04:15:39;23.80;35.70
12060;DHT22;6091;51.432;6.880;2023-05-02T04:18:06;23.80;35.80
12060;DHT22;6091;51.432;6.880;2023-05-02T04:20:33;23.90;35.90
12060;DHT22;6091;51.432;6.880;2023-05-02T04:23:00;23.90;35.80
12060;DHT22;6091;51.432;6.880;2023-05-02T04:25:27;23.80;35.70
12060;DHT22;6091;51.432;6.880;2023-05-02T04:27:55;23.80;36.30
12060;DHT22;6091;51.432;6.880;2023-05-02T04:30:22;23.80;35.80
12060;DHT22;6091;51.432;6.880;2023-05-02T04:32:49;23.80;36.30
12060;DHT22;6091;51.432;6.880;2023-05-02T04:35:16;23.80;35.80
12060;DHT22;6091;51.432;6.880;2023-05-02T04:37:43;23.80;36.40
12060;DHT22;6091;51.432;6.880;2023-05-02T04:40:11;23.80;36.30
12060;DHT22;6091;51.432;6.880;2023-05-02T04:42:38;23.80;35.80
12060;DHT22;6091;51.432;6.880;2023-05-02T04:45:06;23.70;35.80
12060;DHT22;6091;51.432;6.880;2023-05-02T04:47:33;23.70;35.80
12060;DHT22;6091;51.432;6.880;2023-05-02T04:50:00;23.70;35.80
12060;DHT22;6091;51.432;6.880;2023-05-02T04:52:30;23.70;35.80
12060;DHT22;6091;51.432;6.880;2023-05-02T04:54:57;23.70;35.80
12060;DHT22;6091;51.432;6.880;2023-05-02T04:57:24;23.80;35.90
12060;DHT22;6091;51.432;6.880;2023-05-02T04:59:51;23.80;37.00
12060;DHT22;6091;51.432;6.880;2023-05-02T05:02:18;23.80;35.90
12060;DHT22;6091;51.432;6.880;2023-05-02T05:04:45;23.70;35.90
12060;DHT22;6091;51.432;6.880;2023-05-02T05:07:14;23.80;36.40
12060;DHT22;6091;51.432;6.880;2023-05-02T05:09:41;23.70;35.90
12060;DHT22;6091;51.432;6.880;2023-05-02T05:12:08;23.80;36.50
12060;DHT22;6091;51.432;6.880;2023-05-02T05:14:35;23.80;35.90
12060;DHT22;6091;51.432;6.880;2023-05-02T05:17:02;23.80;35.90
12060;DHT22;6091;51.432;6.880;2023-05-02T05:19:29;23.80;36.50
12060;DHT22;6091;51.432;6.880;2023-05-02T05:21:56;23.80;36.40
12060;DHT22;6091;51.432;6.880;2023-05-02T05:24:23;23.80;36.50
12060;DHT22;6091;51.432;6.880;2023-05-02T05:29:18;23.70;35.80
12060;DHT22;6091;51.432;6.880;2023-05-02T05:31:45;23.80;35.90
12060;DHT22;6091;51.432;6.880;2023-05-02T05:34:12;23.70;36.00
12060;DHT22;6091;51.432;6.880;2023-05-02T05:36:40;23.80;36.00
12060;DHT22;6091;51.432;6.880;2023-05-02T05:39:07;23.80;36.20
12060;DHT22;6091;51.432;6.880;2023-05-02T05:41:34;23.70;36.20
12060;DHT22;6091;51.432;6.880;2023-05-02T05:44:01;23.70;36.20
12060;DHT22;6091;51.432;6.880;2023-05-02T05:46:28;23.80;36.90
12060;DHT22;6091;51.432;6.880;2023-05-02T05:48:55;23.90;36.60
12060;DHT22;6091;51.432;6.880;2023-05-02T05:51:22;23.90;36.60
12060;DHT22;6091;51.432;6.880;2023-05-02T05:53:49;24.10;36.80
12060;DHT22;6091;51.432;6.880;2023-05-02T05:56:31;24.00;36.70
12060;DHT22;6091;51.432;6.880;2023-05-02T05:58:58;24.10;36.80
12060;DHT22;6091;51.432;6.880;2023-05-02T06:01:25;24.30;37.40
12060;DHT22;6091;51.432;6.880;2023-05-02T06:03:52;24.40;37.40
12060;DHT22;6091;51.432;6.880;2023-05-02T06:06:19;24.50;36.90
12060;DHT22;6091;51.432;6.880;2023-05-02T06:08:46;24.70;37.00
12060;DHT22;6091;51.432;6.880;2023-05-02T06:11:13;24.70;37.00
12060;DHT22;6091;51.432;6.880;2023-05-02T06:16:07;24.90;37.00
12060;DHT22;6091;51.432;6.880;2023-05-02T06:21:03;25.10;36.60
12060;DHT22;6091;51.432;6.880;2023-05-02T06:23:31;25.10;36.20
12060;DHT22;6091;51.432;6.880;2023-05-02T06:25:59;25.20;36.30
12060;DHT22;6091;51.432;6.880;2023-05-02T06:28:28;25.30;36.40
12060;DHT22;6091;51.432;6.880;2023-05-02T06:30:59;25.30;36.40
12060;DHT22;6091;51.432;6.880;2023-05-02T06:33:29;25.40;36.30
12060;DHT22;6091;51.432;6.880;2023-05-02T06:35:56;25.40;36.40
12060;DHT22;6091;51.432;6.880;2023-05-02T06:38:27;25.40;36.90
12060;DHT22;6091;51.432;6.880;2023-05-02T06:40:54;25.50;36.40
12060;DHT22;6091;51.432;6.880;2023-05-02T06:43:21;25.70;36.40
12060;DHT22;6091;51.432;6.880;2023-05-02T06:45:52;25.60;36.90
12060;DHT22;6091;51.432;6.880;2023-05-02T06:48:20;25.70;36.30
12060;DHT22;6091;51.432;6.880;2023-05-02T06:50:48;25.70;36.90
12060;DHT22;6091;51.432;6.880;2023-05-02T06:53:19;25.80;36.30
12060;DHT22;6091;51.432;6.880;2023-05-02T06:55:47;25.80;36.80
12060;DHT22;6091;51.432;6.880;2023-05-02T07:00:43;26.00;36.20
12060;DHT22;6091;51.432;6.880;2023-05-02T07:03:11;26.10;36.20
12060;DHT22;6091;51.432;6.880;2023-05-02T07:05:38;26.10;36.70
12060;DHT22;6091;51.432;6.880;2023-05-02T07:08:07;26.10;36.10
12060;DHT22;6091;51.432;6.880;2023-05-02T07:13:02;26.10;36.00
12060;DHT22;6091;51.432;6.880;2023-05-02T07:15:29;26.20;36.00
12060;DHT22;6091;51.432;6.880;2023-05-02T07:20:24;26.20;35.90
12060;DHT22;6091;51.432;6.880;2023-05-02T07:25:19;26.00;35.80
12060;DHT22;6091;51.432;6.880;2023-05-02T07:27:46;26.30;35.90
12060;DHT22;6091;51.432;6.880;2023-05-02T07:30:13;26.20;35.90
12060;DHT22;6091;51.432;6.880;2023-05-02T07:32:40;26.20;35.80
12060;DHT22;6091;51.432;6.880;2023-05-02T07:35:08;26.20;35.80
12060;DHT22;6091;51.432;6.880;2023-05-02T07:37:35;26.20;35.80
12060;DHT22;6091;51.432;6.880;2023-05-02T07:40:03;26.20;35.70
12060;DHT22;6091;51.432;6.880;2023-05-02T07:42:30;26.20;35.70
12060;DHT22;6091;51.432;6.880;2023-05-02T07:44:58;26.10;35.70
12060;DHT22;6091;51.432;6.880;2023-05-02T07:47:25;26.20;35.80
12060;DHT22;6091;51.432;6.880;2023-05-02T07:49:53;26.20;35.80
12060;DHT22;6091;51.432;6.880;2023-05-02T07:52:21;26.30;35.80
12060;DHT22;6091;51.432;6.880;2023-05-02T07:54:48;26.20;36.30
12060;DHT22;6091;51.432;6.880;2023-05-02T07:57:16;26.20;35.90
12060;DHT22;6091;51.432;6.880;2023-05-02T07:59:44;26.10;35.80
12060;DHT22;6091;51.432;6.880;2023-05-02T08:02:11;26.20;36.40
12060;DHT22;6091;51.432;6.880;2023-05-02T08:04:40;26.10;35.80
12060;DHT22;6091;51.432;6.880;2023-05-02T08:07:07;26.20;36.50
12060;DHT22;6091;51.432;6.880;2023-05-02T08:12:02;26.10;35.90
12060;DHT22;6091;51.432;6.880;2023-05-02T08:14:29;26.20;36.00
12060;DHT22;6091;51.432;6.880;2023-05-02T08:16:57;26.20;36.20
12060;DHT22;6091;51.432;6.880;2023-05-02T08:19:26;26.20;36.70
12060;DHT22;6091;51.432;6.880;2023-05-02T08:21:57;26.20;36.80
12060;DHT22;6091;51.432;6.880;2023-05-02T08:24:24;26.40;36.20
12060;DHT22;6091;51.432;6.880;2023-05-02T08:26:51;26.40;36.10
12060;DHT22;6091;51.432;6.880;2023-05-02T08:29:18;26.40;35.50
12060;DHT22;6091;51.432;6.880;2023-05-02T08:31:45;26.30;34.10
12060;DHT22;6091;51.432;6.880;2023-05-02T08:34:15;26.30;34.20
12060;DHT22;6091;51.432;6.880;2023-05-02T08:36:42;26.20;34.10
12060;DHT22;6091;51.432;6.880;2023-05-02T08:39:09;26.20;35.10
12060;DHT22;6091;51.432;6.880;2023-05-02T08:41:37;26.20;34.40
12060;DHT22;6091;51.432;6.880;2023-05-02T08:44:05;26.20;34.50
12060;DHT22;6091;51.432;6.880;2023-05-02T08:46:40;26.10;34.70
12060;DHT22;6091;51.432;6.880;2023-05-02T08:49:12;26.10;35.10
12060;DHT22;6091;51.432;6.880;2023-05-02T08:51:44;26.10;33.60
12060;DHT22;6091;51.432;6.880;2023-05-02T08:54:16;26.10;33.90
12060;DHT22;6091;51.432;6.880;2023-05-02T08:56:44;25.90;33.40
12060;DHT22;6091;51.432;6.880;2023-05-02T08:59:11;25.80;33.40
12060;DHT22;6091;51.432;6.880;2023-05-02T09:01:40;25.80;33.90
12060;DHT22;6091;51.432;6.880;2023-05-02T09:04:11;25.90;34.10
12060;DHT22;6091;51.432;6.880;2023-05-02T09:06:40;25.80;34.10
12060;DHT22;6091;51.432;6.880;2023-05-02T09:11:35;26.00;34.30
12060;DHT22;6091;51.432;6.880;2023-05-02T09:14:13;26.10;34.40
12060;DHT22;6091;51.432;6.880;2023-05-02T09:16:41;26.10;34.50
12060;DHT22;6091;51.432;6.880;2023-05-02T09:19:09;26.10;34.40
12060;DHT22;6091;51.432;6.880;2023-05-02T09:21:39;26.30;34.50
12060;DHT22;6091;51.432;6.880;2023-05-02T09:24:18;26.30;34.40
12060;DHT22;6091;51.432;6.880;2023-05-02T09:27:00;26.40;34.40
12060;DHT22;6091;51.432;6.880;2023-05-02T09:29:31;26.50;34.40
12060;DHT22;6091;51.432;6.880;2023-05-02T09:32:05;26.50;34.40
12060;DHT22;6091;51.432;6.880;2023-05-02T09:34:32;26.60;34.40
12060;DHT22;6091;51.432;6.880;2023-05-02T09:37:00;26.80;34.40
12060;DHT22;6091;51.432;6.880;2023-05-02T09:41:57;26.90;34.30
12060;DHT22;6091;51.432;6.880;2023-05-02T09:44:26;26.90;34.80
12060;DHT22;6091;51.432;6.880;2023-05-02T09:47:03;27.00;34.10
12060;DHT22;6091;51.432;6.880;2023-05-02T09:49:43;27.30;34.80
12060;DHT22;6091;51.432;6.880;2023-05-02T09:52:14;27.00;34.00
12060;DHT22;6091;51.432;6.880;2023-05-02T09:54:42;27.10;34.50
12060;DHT22;6091;51.432;6.880;2023-05-02T09:57:12;27.10;33.90
12060;DHT22;6091;51.432;6.880;2023-05-02T09:59:39;27.10;33.90
12060;DHT22;6091;51.432;6.880;2023-05-02T10:02:09;27.20;33.90
12060;DHT22;6091;51.432;6.880;2023-05-02T10:04:37;27.20;33.90
12060;DHT22;6091;51.432;6.880;2023-05-02T10:07:06;27.30;34.00
12060;DHT22;6091;51.432;6.880;2023-05-02T10:09:43;27.20;33.80
12060;DHT22;6091;51.432;6.880;2023-05-02T10:14:48;27.30;33.80
12060;DHT22;6091;51.432;6.880;2023-05-02T10:17:28;27.30;34.20
12060;DHT22;6091;51.432;6.880;2023-05-02T10:20:03;27.30;32.90
12060;DHT22;6091;51.432;6.880;2023-05-02T10:22:35;27.30;32.30
12060;DHT22;6091;51.432;6.880;2023-05-02T10:25:03;27.40;33.00
12060;DHT22;6091;51.432;6.880;2023-05-02T10:27:30;27.30;32.40
12060;DHT22;6091;51.432;6.880;2023-05-02T10:29:59;27.20;32.00
12060;DHT22;6091;51.432;6.880;2023-05-02T10:32:27;27.10;31.80
12060;DHT22;6091;51.432;6.880;2023-05-02T10:35:03;27.00;31.70
12060;DHT22;6091;51.432;6.880;2023-05-02T10:40:02;26.90;31.20
12060;DHT22;6091;51.432;6.880;2023-05-02T10:42:29;26.80;31.70
12060;DHT22;6091;51.432;6.880;2023-05-02T10:45:00;26.40;31.30
12060;DHT22;6091;51.432;6.880;2023-05-02T10:50:02;26.00;30.30
12060;DHT22;6091;51.432;6.880;2023-05-02T10:52:34;26.10;30.40
12060;DHT22;6091;51.432;6.880;2023-05-02T10:55:13;25.80;30.20
12060;DHT22;6091;51.432;6.880;2023-05-02T11:00:29;25.60;30.40
12060;DHT22;6091;51.432;6.880;2023-05-02T11:02:58;25.50;30.70
12060;DHT22;6091;51.432;6.880;2023-05-02T11:05:27;25.50;30.90
12060;DHT22;6091;51.432;6.880;2023-05-02T11:10:48;25.50;31.20
12060;DHT22;6091;51.432;6.880;2023-05-02T11:13:15;25.50;31.50
12060;DHT22;6091;51.432;6.880;2023-05-02T11:16:15;25.50;31.20
12060;DHT22;6091;51.432;6.880;2023-05-02T11:18:58;25.50;31.30
12060;DHT22;6091;51.432;6.880;2023-05-02T11:21:28;25.50;31.10
12060;DHT22;6091;51.432;6.880;2023-05-02T11:30:07;25.70;30.90
12060;DHT22;6091;51.432;6.880;2023-05-02T11:35:24;25.80;30.70
12060;DHT22;6091;51.432;6.880;2023-05-02T11:38:00;25.80;30.50
12060;DHT22;6091;51.432;6.880;2023-05-02T11:40:31;25.80;30.60
12060;DHT22;6091;51.432;6.880;2023-05-02T11:42:59;25.90;30.70
12060;DHT22;6091;51.432;6.880;2023-05-02T11:48:10;26.20;31.10
12060;DHT22;6091;51.432;6.880;2023-05-02T11:50:43;26.30;30.80
12060;DHT22;6091;51.432;6.880;2023-05-02T11:53:21;26.60;30.70
12060;DHT22;6091;51.432;6.880;2023-05-02T11:56:00;26.70;30.40
12060;DHT22;6091;51.432;6.880;2023-05-02T11:58:30;26.70;30.00
12060;DHT22;6091;51.432;6.880;2023-05-02T12:01:15;26.80;29.90
12060;DHT22;6091;51.432;6.880;2023-05-02T12:06:13;26.90;29.70
12060;DHT22;6091;51.432;6.880;2023-05-02T12:08:43;26.80;29.40
12060;DHT22;6091;51.432;6.880;2023-05-02T12:11:14;26.90;29.70
12060;DHT22;6091;51.432;6.880;2023-05-02T12:13:47;26.70;29.30
12060;DHT22;6091;51.432;6.880;2023-05-02T12:16:16;26.60;28.80
12060;DHT22;6091;51.432;6.880;2023-05-02T12:18:45;26.60;29.00
12060;DHT22;6091;51.432;6.880;2023-05-02T12:21:14;26.60;29.20
12060;DHT22;6091;51.432;6.880;2023-05-02T12:23:43;26.60;29.20
12060;DHT22;6091;51.432;6.880;2023-05-02T12:26:21;26.60;29.20
12060;DHT22;6091;51.432;6.880;2023-05-02T12:28:58;26.60;29.40
12060;DHT22;6091;51.432;6.880;2023-05-02T12:31:26;26.70;29.50
12060;DHT22;6091;51.432;6.880;2023-05-02T12:33:57;26.70;28.90
12060;DHT22;6091;51.432;6.880;2023-05-02T12:36:27;26.70;29.20
12060;DHT22;6091;51.432;6.880;2023-05-02T12:38:56;26.90;29.30
12060;DHT22;6091;51.432;6.880;2023-05-02T12:41:34;26.80;29.60
12060;DHT22;6091;51.432;6.880;2023-05-02T12:44:09;27.00;29.30
12060;DHT22;6091;51.432;6.880;2023-05-02T12:46:37;27.20;29.20
12060;DHT22;6091;51.432;6.880;2023-05-02T12:49:08;27.30;28.80
12060;DHT22;6091;51.432;6.880;2023-05-02T12:54:07;27.60;28.60
12060;DHT22;6091;51.432;6.880;2023-05-02T12:59:26;27.70;28.30
12060;DHT22;6091;51.432;6.880;2023-05-02T13:01:55;27.80;28.60
12060;DHT22;6091;51.432;6.880;2023-05-02T13:04:36;27.80;28.50
12060;DHT22;6091;51.432;6.880;2023-05-02T13:07:08;28.00;29.00
12060;DHT22;6091;51.432;6.880;2023-05-02T13:09:35;28.00;29.30
12060;DHT22;6091;51.432;6.880;2023-05-02T13:12:03;28.30;28.80
12060;DHT22;6091;51.432;6.880;2023-05-02T13:14:31;28.40;28.30
12060;DHT22;6091;51.432;6.880;2023-05-02T13:16:58;28.50;27.90
12060;DHT22;6091;51.432;6.880;2023-05-02T13:19:26;28.40;27.70
12060;DHT22;6091;51.432;6.880;2023-05-02T13:26:52;28.40;26.90
12060;DHT22;6091;51.432;6.880;2023-05-02T13:29:19;28.20;27.20
12060;DHT22;6091;51.432;6.880;2023-05-02T13:31:46;28.10;27.00
12060;DHT22;6091;51.432;6.880;2023-05-02T13:34:13;28.00;26.30
12060;DHT22;6091;51.432;6.880;2023-05-02T13:41:39;27.80;26.00
12060;DHT22;6091;51.432;6.880;2023-05-02T13:44:07;27.70;26.10
12060;DHT22;6091;51.432;6.880;2023-05-02T13:46:35;27.50;26.20
12060;DHT22;6091;51.432;6.880;2023-05-02T13:53:59;27.20;26.10
12060;DHT22;6091;51.432;6.880;2023-05-02T13:56:27;27.20;26.10
12060;DHT22;6091;51.432;6.880;2023-05-02T13:58:54;27.10;26.40
12060;DHT22;6091;51.432;6.880;2023-05-02T14:01:22;27.00;26.30
12060;DHT22;6091;51.432;6.880;2023-05-02T14:03:52;27.00;26.50
12060;DHT22;6091;51.432;6.880;2023-05-02T14:06:20;26.90;26.10
12060;DHT22;6091;51.432;6.880;2023-05-02T14:08:47;26.90;26.30
12060;DHT22;6091;51.432;6.880;2023-05-02T14:13:42;26.80;25.70
12060;DHT22;6091;51.432;6.880;2023-05-02T14:18:37;26.60;25.70
12060;DHT22;6091;51.432;6.880;2023-05-02T14:21:04;26.50;25.80
12060;DHT22;6091;51.432;6.880;2023-05-02T14:23:32;26.30;25.50
12060;DHT22;6091;51.432;6.880;2023-05-02T14:28:27;26.30;25.70
12060;DHT22;6091;51.432;6.880;2023-05-02T14:30:55;26.10;25.80
12060;DHT22;6091;51.432;6.880;2023-05-02T14:33:22;26.10;25.70
12060;DHT22;6091;51.432;6.880;2023-05-02T14:35:49;26.00;25.60
12060;DHT22;6091;51.432;6.880;2023-05-02T14:38:17;26.00;25.80
12060;DHT22;6091;51.432;6.880;2023-05-02T14:40:44;25.90;25.90
12060;DHT22;6091;51.432;6.880;2023-05-02T14:43:12;25.90;26.10
12060;DHT22;6091;51.432;6.880;2023-05-02T14:48:07;25.90;26.40
12060;DHT22;6091;51.432;6.880;2023-05-02T14:53:06;26.10;26.60
12060;DHT22;6091;51.432;6.880;2023-05-02T14:55:37;26.30;26.80
12060;DHT22;6091;51.432;6.880;2023-05-02T15:00:35;26.60;26.60
12060;DHT22;6091;51.432;6.880;2023-05-02T15:03:04;26.70;26.40
12060;DHT22;6091;51.432;6.880;2023-05-02T15:05:34;26.70;26.20
12060;DHT22;6091;51.432;6.880;2023-05-02T15:08:01;26.80;26.10
12060;DHT22;6091;51.432;6.880;2023-05-02T15:12:56;26.90;25.80
12060;DHT22;6091;51.432;6.880;2023-05-02T15:15:23;26.90;25.80
12060;DHT22;6091;51.432;6.880;2023-05-02T15:17:51;26.90;25.80
12060;DHT22;6091;51.432;6.880;2023-05-02T15:20:18;26.90;25.50
12060;DHT22;6091;51.432;6.880;2023-05-02T15:25:13;27.10;25.90
12060;DHT22;6091;51.432;6.880;2023-05-02T15:27:43;27.20;25.80
12060;DHT22;6091;51.432;6.880;2023-05-02T15:30:11;27.30;25.70
12060;DHT22;6091;51.432;6.880;2023-05-02T15:32:38;27.20;26.00
12060;DHT22;6091;51.432;6.880;2023-05-02T15:35:05;27.30;25.50
12060;DHT22;6091;51.432;6.880;2023-05-02T15:37:36;27.30;25.50
12060;DHT22;6091;51.432;6.880;2023-05-02T15:42:34;27.30;25.40
12060;DHT22;6091;51.432;6.880;2023-05-02T15:45:12;27.40;25.50
12060;DHT22;6091;51.432;6.880;2023-05-02T15:50:08;27.20;25.20
12060;DHT22;6091;51.432;6.880;2023-05-02T15:52:37;27.20;25.50
12060;DHT22;6091;51.432;6.880;2023-05-02T15:55:04;27.30;25.50
12060;DHT22;6091;51.432;6.880;2023-05-02T15:57:31;27.20;25.30
12060;DHT22;6091;51.432;6.880;2023-05-02T16:02:26;27.20;25.20
12060;DHT22;6091;51.432;6.880;2023-05-02T16:04:53;27.00;24.90
12060;DHT22;6091;51.432;6.880;2023-05-02T16:07:22;27.00;25.00
12060;DHT22;6091;51.432;6.880;2023-05-02T16:09:50;26.90;24.80
12060;DHT22;6091;51.432;6.880;2023-05-02T16:12:17;26.90;24.90
12060;DHT22;6091;51.432;6.880;2023-05-02T16:17:12;26.80;24.80
12060;DHT22;6091;51.432;6.880;2023-05-02T16:19:39;26.70;24.90
12060;DHT22;6091;51.432;6.880;2023-05-02T16:22:06;26.70;24.90
12060;DHT22;6091;51.432;6.880;2023-05-02T16:29:28;26.60;24.80
12060;DHT22;6091;51.432;6.880;2023-05-02T16:31:56;26.60;24.70
12060;DHT22;6091;51.432;6.880;2023-05-02T16:34:23;26.60;24.60
12060;DHT22;6091;51.432;6.880;2023-05-02T16:36:50;26.60;24.70
12060;DHT22;6091;51.432;6.880;2023-05-02T16:39:18;26.60;24.70
12060;DHT22;6091;51.432;6.880;2023-05-02T16:41:45;26.60;24.90
12060;DHT22;6091;51.432;6.880;2023-05-02T16:44:14;26.60;24.90
12060;DHT22;6091;51.432;6.880;2023-05-02T16:49:09;26.60;24.90
12060;DHT22;6091;51.432;6.880;2023-05-02T16:51:36;26.50;24.70
12060;DHT22;6091;51.432;6.880;2023-05-02T16:58:58;26.50;25.00
12060;DHT22;6091;51.432;6.880;2023-05-02T17:01:26;26.40;25.00
12060;DHT22;6091;51.432;6.880;2023-05-02T17:03:53;26.30;25.10
12060;DHT22;6091;51.432;6.880;2023-05-02T17:06:20;26.30;25.10
12060;DHT22;6091;51.432;6.880;2023-05-02T17:08:48;26.30;25.30
12060;DHT22;6091;51.432;6.880;2023-05-02T17:11:16;26.30;25.30
12060;DHT22;6091;51.432;6.880;2023-05-02T17:13:44;26.30;25.40
12060;DHT22;6091;51.432;6.880;2023-05-02T17:16:12;26.30;25.50
12060;DHT22;6091;51.432;6.880;2023-05-02T17:18:40;26.30;25.50
12060;DHT22;6091;51.432;6.880;2023-05-02T17:21:16;26.30;25.70
12060;DHT22;6091;51.432;6.880;2023-05-02T17:23:43;26.30;25.60
12060;DHT22;6091;51.432;6.880;2023-05-02T17:26:11;26.20;25.70
12060;DHT22;6091;51.432;6.880;2023-05-02T17:28:42;26.10;26.10
12060;DHT22;6091;51.432;6.880;2023-05-02T17:31:11;26.20;25.80
12060;DHT22;6091;51.432;6.880;2023-05-02T17:33:39;26.10;25.90
12060;DHT22;6091;51.432;6.880;2023-05-02T17:36:06;26.10;25.80
12060;DHT22;6091;51.432;6.880;2023-05-02T17:38:33;26.10;26.00
12060;DHT22;6091;51.432;6.880;2023-05-02T17:41:00;26.10;26.00
12060;DHT22;6091;51.432;6.880;2023-05-02T17:43:27;26.00;26.00
12060;DHT22;6091;51.432;6.880;2023-05-02T17:45:54;26.00;26.00
12060;DHT22;6091;51.432;6.880;2023-05-02T17:48:21;25.90;26.10
12060;DHT22;6091;51.432;6.880;2023-05-02T17:50:49;25.90;26.10
12060;DHT22;6091;51.432;6.880;2023-05-02T17:53:16;25.90;26.20
12060;DHT22;6091;51.432;6.880;2023-05-02T17:55:44;25.80;26.30
12060;DHT22;6091;51.432;6.880;2023-05-02T17:58:11;25.80;26.20
12060;DHT22;6091;51.432;6.880;2023-05-02T18:00:38;25.70;26.40
12060;DHT22;6091;51.432;6.880;2023-05-02T18:03:05;25.80;26.30
12060;DHT22;6091;51.432;6.880;2023-05-02T18:05:39;25.60;26.40
12060;DHT22;6091;51.432;6.880;2023-05-02T18:13:05;25.60;26.60
12060;DHT22;6091;51.432;6.880;2023-05-02T18:15:32;25.60;26.60
12060;DHT22;6091;51.432;6.880;2023-05-02T18:18:00;25.60;26.60
12060;DHT22;6091;51.432;6.880;2023-05-02T18:20:27;25.50;26.70
12060;DHT22;6091;51.432;6.880;2023-05-02T18:22:54;25.50;26.80
12060;DHT22;6091;51.432;6.880;2023-05-02T18:25:24;25.50;26.80